sensor_id;sensor_type;location;lat;lon;timestamp;P1;durP1;ratioP1;P2;durP2;ratioP2
25057;SDS011;13057;50.978;11.034;2023-04-20T00:02:05;2.97;;;2.60;;
25057;SDS011;13057;50.978;11.034;2023-04-20T00:04:32;4.20;;;2.47;;
25057;SDS011;13057;50.978;11.034;2023-04-20T00:06:58;3.22;;;2.30;;
25057;SDS011;13057;50.978;11.034;2023-04-20T00:09:25;4.63;;;2.60;;
25057;SDS011;13057;50.978;11.034;2023-04-20T00:11:51;3.60;;;2.55;;
25057;SDS011;13057;50.978;11.034;2023-04-20T00:14:17;4.57;;;2.67;;
25057;SDS011;13057;50.978;11.034;2023-04-20T00:16:43;2.83;;;2.25;;
25057;SDS011;13057;50.978;11.034;2023-04-20T00:19:10;3.00;;;2.15;;
25057;SDS011;13057;50.978;11.034;2023-04-20T00:21:36;3.45;;;2.53;;
25057;SDS011;13057;50.978;11.034;2023-04-20T00:24:01;2.88;;;2.50;;
25057;SDS011;13057;50.978;11.034;2023-04-20T00:26:27;3.13;;;2.40;;
25057;SDS011;13057;50.978;11.034;2023-04-20T00:28:54;4.90;;;2.50;;
25057;SDS011;13057;50.978;11.034;2023-04-20T00:31:20;3.33;;;2.38;;
25057;SDS011;13057;50.978;11.034;2023-04-20T00:33:46;3.78;;;2.65;;
25057;SDS011;13057;50.978;11.034;2023-04-20T00:36:13;5.13;;;2.53;;
25057;SDS011;13057;50.978;11.034;2023-04-20T00:38:40;3.80;;;2.50;;
25057;SDS011;13057;50.978;11.034;2023-04-20T00:41:06;3.00;;;2.38;;
25057;SDS011;13057;50.978;11.034;2023-04-20T00:43:31;3.08;;;2.67;;
25057;SDS011;13057;50.978;11.034;2023-04-20T00:45:57;3.83;;;2.95;;
25057;SDS011;13057;50.978;11.034;2023-04-20T00:48:23;3.25;;;2.55;;
25057;SDS011;13057;50.978;11.034;2023-04-20T00:50:49;2.80;;;2.33;;
25057;SDS011;13057;50.978;11.034;2023-04-20T00:53:16;5.00;;;2.45;;
25057;SDS011;13057;50.978;11.034;2023-04-20T00:55:43;2.80;;;2.50;;
25057;SDS011;13057;50.978;11.034;2023-04-20T00:58:09;3.30;;;2.28;;
25057;SDS011;13057;50.978;11.034;2023-04-20T01:00:36;3.13;;;2.28;;
25057;SDS011;13057;50.978;11.034;2023-04-20T01:03:04;3.63;;;2.50;;
25057;SDS011;13057;50.978;11.034;2023-04-20T01:05:31;3.60;;;2.65;;
25057;SDS011;13057;50.978;11.034;2023-04-20T01:07:57;2.63;;;2.40;;
25057;SDS011;13057;50.978;11.034;2023-04-20T01:10:23;3.28;;;2.63;;
25057;SDS011;13057;50.978;11.034;2023-04-20T01:12:49;3.35;;;2.70;;
25057;SDS011;13057;50.978;11.034;2023-04-20T01:15:15;3.75;;;2.65;;
25057;SDS011;13057;50.978;11.034;2023-04-20T01:17:41;3.17;;;2.63;;
25057;SDS011;13057;50.978;11.034;2023-04-20T01:20:08;3.50;;;2.50;;
25057;SDS011;13057;50.978;11.034;2023-04-20T01:22:43;3.60;;;2.67;;
25057;SDS011;13057;50.978;11.034;2023-04-20T01:25:10;4.22;;;2.50;;
25057;SDS011;13057;50.978;11.034;2023-04-20T01:27:36;3.25;;;2.38;;
25057;SDS011;13057;50.978;11.034;2023-04-20T01:30:02;3.05;;;2.40;;
25057;SDS011;13057;50.978;11.034;2023-04-20T01:32:28;2.63;;;2.33;;
25057;SDS011;13057;50.978;11.034;2023-04-20T01:34:54;2.83;;;2.40;;
25057;SDS011;13057;50.978;11.034;2023-04-20T01:37:20;3.38;;;2.75;;
25057;SDS011;13057;50.978;11.034;2023-04-20T01:39:46;3.65;;;2.60;;
25057;SDS011;13057;50.978;11.034;2023-04-20T01:42:12;3.72;;;2.80;;
25057;SDS011;13057;50.978;11.034;2023-04-20T01:44:37;3.60;;;2.88;;
25057;SDS011;13057;50.978;11.034;2023-04-20T01:47:04;3.63;;;2.70;;
25057;SDS011;13057;50.978;11.034;2023-04-20T01:49:30;4.28;;;2.88;;
25057;SDS011;13057;50.978;11.034;2023-04-20T01:51:55;3.47;;;2.63;;
25057;SDS011;13057;50.978;11.034;2023-04-20T01:54:21;3.60;;;2.85;;
25057;SDS011;13057;50.978;11.034;2023-04-20T01:56:47;3.20;;;2.58;;
25057;SDS011;13057;50.978;11.034;2023-04-20T01:59:13;3.22;;;2.58;;
25057;SDS011;13057;50.978;11.034;2023-04-20T02:01:39;2.50;;;2.30;;
25057;SDS011;13057;50.978;11.034;2023-04-20T02:04:05;2.75;;;2.28;;
25057;SDS011;13057;50.978;11.034;2023-04-20T02:06:31;3.05;;;2.35;;
25057;SDS011;13057;50.978;11.034;2023-04-20T02:08:57;2.78;;;2.13;;
25057;SDS011;13057;50.978;11.034;2023-04-20T02:11:23;3.33;;;2.88;;
25057;SDS011;13057;50.978;11.034;2023-04-20T02:13:48;5.95;;;3.25;;
25057;SDS011;13057;50.978;11.034;2023-04-20T02:16:15;5.75;;;3.63;;
25057;SDS011;13057;50.978;11.034;2023-04-20T02:18:43;3.75;;;3.25;;
25057;SDS011;13057;50.978;11.034;2023-04-20T02:21:10;4.43;;;3.47;;
25057;SDS011;13057;50.978;11.034;2023-04-20T02:23:36;4.47;;;3.80;;
25057;SDS011;13057;50.978;11.034;2023-04-20T02:26:02;3.70;;;3.05;;
25057;SDS011;13057;50.978;11.034;2023-04-20T02:28:28;4.47;;;3.45;;
25057;SDS011;13057;50.978;11.034;2023-04-20T02:30:53;4.40;;;3.45;;
25057;SDS011;13057;50.978;11.034;2023-04-20T02:33:19;4.97;;;3.45;;
25057;SDS011;13057;50.978;11.034;2023-04-20T02:35:46;4.53;;;3.60;;
25057;SDS011;13057;50.978;11.034;2023-04-20T02:38:12;4.10;;;3.50;;
25057;SDS011;13057;50.978;11.034;2023-04-20T02:40:37;7.13;;;3.90;;
25057;SDS011;13057;50.978;11.034;2023-04-20T02:43:03;4.53;;;3.70;;
25057;SDS011;13057;50.978;11.034;2023-04-20T02:45:31;6.45;;;3.50;;
25057;SDS011;13057;50.978;11.034;2023-04-20T02:47:57;4.43;;;3.60;;
25057;SDS011;13057;50.978;11.034;2023-04-20T02:50:22;4.57;;;3.30;;
25057;SDS011;13057;50.978;11.034;2023-04-20T02:52:48;5.65;;;4.05;;
25057;SDS011;13057;50.978;11.034;2023-04-20T02:55:14;5.22;;;3.97;;
25057;SDS011;13057;50.978;11.034;2023-04-20T02:57:40;4.28;;;3.63;;
25057;SDS011;13057;50.978;11.034;2023-04-20T03:00:06;3.75;;;3.30;;
25057;SDS011;13057;50.978;11.034;2023-04-20T03:02:34;4.38;;;3.70;;
25057;SDS011;13057;50.978;11.034;2023-04-20T03:05:01;5.63;;;3.58;;
25057;SDS011;13057;50.978;11.034;2023-04-20T03:07:27;6.55;;;4.15;;
25057;SDS011;13057;50.978;11.034;2023-04-20T03:09:53;4.80;;;3.60;;
25057;SDS011;13057;50.978;11.034;2023-04-20T03:12:19;5.50;;;3.80;;
25057;SDS011;13057;50.978;11.034;2023-04-20T03:14:46;5.03;;;3.70;;
25057;SDS011;13057;50.978;11.034;2023-04-20T03:17:12;5.15;;;3.28;;
25057;SDS011;13057;50.978;11.034;2023-04-20T03:19:38;3.70;;;3.30;;
25057;SDS011;13057;50.978;11.034;2023-04-20T03:22:05;4.25;;;3.50;;
25057;SDS011;13057;50.978;11.034;2023-04-20T03:24:30;4.93;;;3.70;;
25057;SDS011;13057;50.978;11.034;2023-04-20T03:26:56;3.92;;;3.30;;
25057;SDS011;13057;50.978;11.034;2023-04-20T03:29:22;3.22;;;2.80;;
25057;SDS011;13057;50.978;11.034;2023-04-20T03:31:48;3.47;;;2.90;;
25057;SDS011;13057;50.978;11.034;2023-04-20T03:34:14;3.80;;;3.40;;
25057;SDS011;13057;50.978;11.034;2023-04-20T03:36:40;4.28;;;3.40;;
25057;SDS011;13057;50.978;11.034;2023-04-20T03:39:06;4.05;;;3.15;;
25057;SDS011;13057;50.978;11.034;2023-04-20T03:41:32;4.25;;;3.67;;
25057;SDS011;13057;50.978;11.034;2023-04-20T03:43:58;6.13;;;4.45;;
25057;SDS011;13057;50.978;11.034;2023-04-20T03:46:24;5.25;;;3.97;;
25057;SDS011;13057;50.978;11.034;2023-04-20T03:48:50;5.15;;;4.13;;
25057;SDS011;13057;50.978;11.034;2023-04-20T03:51:16;5.65;;;4.20;;
25057;SDS011;13057;50.978;11.034;2023-04-20T03:53:42;6.40;;;4.53;;
25057;SDS011;13057;50.978;11.034;2023-04-20T03:56:07;6.50;;;4.82;;
25057;SDS011;13057;50.978;11.034;2023-04-20T03:58:33;6.38;;;4.65;;
25057;SDS011;13057;50.978;11.034;2023-04-20T04:01:00;5.47;;;4.88;;
25057;SDS011;13057;50.978;11.034;2023-04-20T04:03:34;5.95;;;4.90;;
25057;SDS011;13057;50.978;11.034;2023-04-20T04:06:00;8.65;;;6.47;;
25057;SDS011;13057;50.978;11.034;2023-04-20T04:08:26;8.85;;;5.68;;
25057;SDS011;13057;50.978;11.034;2023-04-20T04:10:52;11.95;;;8.38;;
25057;SDS011;13057;50.978;11.034;2023-04-20T04:13:18;7.10;;;5.97;;
25057;SDS011;13057;50.978;11.034;2023-04-20T04:15:44;10.50;;;6.68;;
25057;SDS011;13057;50.978;11.034;2023-04-20T04:18:10;8.55;;;6.78;;
25057;SDS011;13057;50.978;11.034;2023-04-20T04:20:36;9.20;;;6.60;;
25057;SDS011;13057;50.978;11.034;2023-04-20T04:23:02;12.07;;;7.13;;
25057;SDS011;13057;50.978;11.034;2023-04-20T04:25:27;9.15;;;7.03;;
25057;SDS011;13057;50.978;11.034;2023-04-20T04:27:53;9.45;;;7.70;;
25057;SDS011;13057;50.978;11.034;2023-04-20T04:30:20;9.52;;;7.20;;
25057;SDS011;13057;50.978;11.034;2023-04-20T04:32:46;12.80;;;8.05;;
25057;SDS011;13057;50.978;11.034;2023-04-20T04:35:13;12.32;;;7.95;;
25057;SDS011;13057;50.978;11.034;2023-04-20T04:37:38;11.27;;;8.40;;
25057;SDS011;13057;50.978;11.034;2023-04-20T04:40:05;13.02;;;7.85;;
25057;SDS011;13057;50.978;11.034;2023-04-20T04:42:32;15.57;;;8.70;;
25057;SDS011;13057;50.978;11.034;2023-04-20T04:44:59;9.50;;;6.65;;
25057;SDS011;13057;50.978;11.034;2023-04-20T04:47:26;10.18;;;7.03;;
25057;SDS011;13057;50.978;11.034;2023-04-20T04:49:54;11.25;;;7.50;;
25057;SDS011;13057;50.978;11.034;2023-04-20T04:52:21;10.85;;;7.22;;
25057;SDS011;13057;50.978;11.034;2023-04-20T04:54:47;13.50;;;7.53;;
25057;SDS011;13057;50.978;11.034;2023-04-20T04:57:13;11.10;;;8.18;;
25057;SDS011;13057;50.978;11.034;2023-04-20T04:59:42;11.75;;;8.48;;
25057;SDS011;13057;50.978;11.034;2023-04-20T05:02:08;12.48;;;8.00;;
25057;SDS011;13057;50.978;11.034;2023-04-20T05:04:34;13.52;;;8.95;;
25057;SDS011;13057;50.978;11.034;2023-04-20T05:07:00;14.15;;;8.73;;
25057;SDS011;13057;50.978;11.034;2023-04-20T05:09:26;13.55;;;9.10;;
25057;SDS011;13057;50.978;11.034;2023-04-20T05:11:57;17.90;;;9.85;;
25057;SDS011;13057;50.978;11.034;2023-04-20T05:14:25;14.63;;;9.02;;
25057;SDS011;13057;50.978;11.034;2023-04-20T05:16:51;14.85;;;9.35;;
25057;SDS011;13057;50.978;11.034;2023-04-20T05:19:17;13.82;;;9.27;;
25057;SDS011;13057;50.978;11.034;2023-04-20T05:21:43;15.25;;;10.25;;
25057;SDS011;13057;50.978;11.034;2023-04-20T05:24:09;13.30;;;9.68;;
25057;SDS011;13057;50.978;11.034;2023-04-20T05:26:35;15.77;;;9.50;;
25057;SDS011;13057;50.978;11.034;2023-04-20T05:29:01;13.40;;;9.88;;
25057;SDS011;13057;50.978;11.034;2023-04-20T05:31:27;14.75;;;9.90;;
25057;SDS011;13057;50.978;11.034;2023-04-20T05:33:53;14.35;;;9.70;;
25057;SDS011;13057;50.978;11.034;2023-04-20T05:36:19;14.45;;;9.60;;
25057;SDS011;13057;50.978;11.034;2023-04-20T05:38:45;13.68;;;9.60;;
25057;SDS011;13057;50.978;11.034;2023-04-20T05:41:10;15.65;;;9.75;;
25057;SDS011;13057;50.978;11.034;2023-04-20T05:43:36;14.93;;;10.02;;
25057;SDS011;13057;50.978;11.034;2023-04-20T05:46:02;15.75;;;10.05;;
25057;SDS011;13057;50.978;11.034;2023-04-20T05:48:28;17.80;;;10.25;;
25057;SDS011;13057;50.978;11.034;2023-04-20T05:50:55;15.73;;;10.57;;
25057;SDS011;13057;50.978;11.034;2023-04-20T05:53:21;14.75;;;10.23;;
25057;SDS011;13057;50.978;11.034;2023-04-20T05:55:47;16.33;;;10.75;;
25057;SDS011;13057;50.978;11.034;2023-04-20T05:58:13;15.90;;;10.35;;
25057;SDS011;13057;50.978;11.034;2023-04-20T06:00:39;15.80;;;10.02;;
25057;SDS011;13057;50.978;11.034;2023-04-20T06:03:05;15.85;;;10.18;;
25057;SDS011;13057;50.978;11.034;2023-04-20T06:05:31;17.42;;;10.70;;
25057;SDS011;13057;50.978;11.034;2023-04-20T06:07:57;18.23;;;10.73;;
25057;SDS011;13057;50.978;11.034;2023-04-20T06:10:23;16.90;;;10.32;;
25057;SDS011;13057;50.978;11.034;2023-04-20T06:12:49;17.27;;;10.80;;
25057;SDS011;13057;50.978;11.034;2023-04-20T06:15:15;15.73;;;10.80;;
25057;SDS011;13057;50.978;11.034;2023-04-20T06:17:41;17.08;;;11.10;;
25057;SDS011;13057;50.978;11.034;2023-04-20T06:20:08;15.00;;;9.73;;
25057;SDS011;13057;50.978;11.034;2023-04-20T06:22:35;15.60;;;10.38;;
25057;SDS011;13057;50.978;11.034;2023-04-20T06:25:01;15.85;;;9.95;;
25057;SDS011;13057;50.978;11.034;2023-04-20T06:27:27;16.17;;;9.95;;
25057;SDS011;13057;50.978;11.034;2023-04-20T06:29:53;15.88;;;9.73;;
25057;SDS011;13057;50.978;11.034;2023-04-20T06:32:19;16.27;;;10.07;;
25057;SDS011;13057;50.978;11.034;2023-04-20T06:34:45;16.50;;;10.05;;
25057;SDS011;13057;50.978;11.034;2023-04-20T06:37:11;15.00;;;9.88;;
25057;SDS011;13057;50.978;11.034;2023-04-20T06:39:38;17.23;;;9.88;;
25057;SDS011;13057;50.978;11.034;2023-04-20T06:42:04;18.02;;;8.52;;
25057;SDS011;13057;50.978;11.034;2023-04-20T06:44:30;13.40;;;8.93;;
25057;SDS011;13057;50.978;11.034;2023-04-20T06:46:55;12.82;;;8.77;;
25057;SDS011;13057;50.978;11.034;2023-04-20T06:49:21;13.80;;;9.23;;
25057;SDS011;13057;50.978;11.034;2023-04-20T06:51:47;11.93;;;8.40;;
25057;SDS011;13057;50.978;11.034;2023-04-20T06:54:13;12.82;;;8.57;;
25057;SDS011;13057;50.978;11.034;2023-04-20T06:56:39;12.98;;;8.15;;
25057;SDS011;13057;50.978;11.034;2023-04-20T06:59:04;11.25;;;7.13;;
25057;SDS011;13057;50.978;11.034;2023-04-20T07:01:30;12.35;;;7.57;;
25057;SDS011;13057;50.978;11.034;2023-04-20T07:03:56;13.30;;;8.10;;
25057;SDS011;13057;50.978;11.034;2023-04-20T07:06:22;11.65;;;7.43;;
25057;SDS011;13057;50.978;11.034;2023-04-20T07:08:49;12.65;;;8.43;;
25057;SDS011;13057;50.978;11.034;2023-04-20T07:11:15;12.75;;;8.30;;
25057;SDS011;13057;50.978;11.034;2023-04-20T07:13:41;12.75;;;8.85;;
25057;SDS011;13057;50.978;11.034;2023-04-20T07:16:07;13.75;;;8.75;;
25057;SDS011;13057;50.978;11.034;2023-04-20T07:18:34;13.63;;;8.43;;
25057;SDS011;13057;50.978;11.034;2023-04-20T07:21:00;14.55;;;8.32;;
25057;SDS011;13057;50.978;11.034;2023-04-20T07:23:26;14.13;;;8.75;;
25057;SDS011;13057;50.978;11.034;2023-04-20T07:25:52;12.40;;;8.45;;
25057;SDS011;13057;50.978;11.034;2023-04-20T07:28:19;10.95;;;7.70;;
25057;SDS011;13057;50.978;11.034;2023-04-20T07:30:45;12.85;;;8.48;;
25057;SDS011;13057;50.978;11.034;2023-04-20T07:33:11;13.63;;;8.45;;
25057;SDS011;13057;50.978;11.034;2023-04-20T07:35:37;13.95;;;8.20;;
25057;SDS011;13057;50.978;11.034;2023-04-20T07:38:03;13.50;;;7.97;;
25057;SDS011;13057;50.978;11.034;2023-04-20T07:40:29;13.88;;;8.50;;
25057;SDS011;13057;50.978;11.034;2023-04-20T07:42:55;12.82;;;8.13;;
25057;SDS011;13057;50.978;11.034;2023-04-20T07:45:21;10.05;;;7.85;;
25057;SDS011;13057;50.978;11.034;2023-04-20T07:47:48;13.48;;;8.90;;
25057;SDS011;13057;50.978;11.034;2023-04-20T07:50:19;11.00;;;8.55;;
25057;SDS011;13057;50.978;11.034;2023-04-20T07:52:48;11.95;;;8.68;;
25057;SDS011;13057;50.978;11.034;2023-04-20T07:55:14;12.30;;;8.70;;
25057;SDS011;13057;50.978;11.034;2023-04-20T07:57:41;12.88;;;8.95;;
25057;SDS011;13057;50.978;11.034;2023-04-20T08:00:07;12.75;;;8.40;;
25057;SDS011;13057;50.978;11.034;2023-04-20T08:02:34;12.30;;;9.00;;
25057;SDS011;13057;50.978;11.034;2023-04-20T08:05:03;16.08;;;8.70;;
25057;SDS011;13057;50.978;11.034;2023-04-20T08:07:30;13.75;;;8.93;;
25057;SDS011;13057;50.978;11.034;2023-04-20T08:09:55;11.63;;;9.02;;
25057;SDS011;13057;50.978;11.034;2023-04-20T08:12:21;11.30;;;7.97;;
25057;SDS011;13057;50.978;11.034;2023-04-20T08:14:47;11.02;;;8.27;;
25057;SDS011;13057;50.978;11.034;2023-04-20T08:17:13;11.98;;;8.43;;
25057;SDS011;13057;50.978;11.034;2023-04-20T08:19:39;13.55;;;8.10;;
25057;SDS011;13057;50.978;11.034;2023-04-20T08:22:05;11.80;;;8.20;;
25057;SDS011;13057;50.978;11.034;2023-04-20T08:24:31;10.50;;;7.97;;
25057;SDS011;13057;50.978;11.034;2023-04-20T08:26:57;10.60;;;7.50;;
25057;SDS011;13057;50.978;11.034;2023-04-20T08:29:23;17.33;;;8.73;;
25057;SDS011;13057;50.978;11.034;2023-04-20T08:31:49;14.93;;;7.43;;
25057;SDS011;13057;50.978;11.034;2023-04-20T08:34:16;11.13;;;7.43;;
25057;SDS011;13057;50.978;11.034;2023-04-20T08:36:41;11.05;;;7.82;;
25057;SDS011;13057;50.978;11.034;2023-04-20T08:39:10;9.25;;;6.90;;
25057;SDS011;13057;50.978;11.034;2023-04-20T08:41:38;10.80;;;7.10;;
25057;SDS011;13057;50.978;11.034;2023-04-20T08:44:04;9.32;;;7.10;;
25057;SDS011;13057;50.978;11.034;2023-04-20T08:46:32;8.77;;;6.35;;
25057;SDS011;13057;50.978;11.034;2023-04-20T08:48:59;9.02;;;6.13;;
25057;SDS011;13057;50.978;11.034;2023-04-20T08:51:26;11.57;;;6.30;;
25057;SDS011;13057;50.978;11.034;2023-04-20T08:53:54;7.93;;;6.25;;
25057;SDS011;13057;50.978;11.034;2023-04-20T08:56:31;8.15;;;6.03;;
25057;SDS011;13057;50.978;11.034;2023-04-20T08:58:59;9.60;;;7.00;;
25057;SDS011;13057;50.978;11.034;2023-04-20T09:01:28;8.82;;;6.22;;
25057;SDS011;13057;50.978;11.034;2023-04-20T09:03:54;7.45;;;5.45;;
25057;SDS011;13057;50.978;11.034;2023-04-20T09:06:19;9.02;;;6.25;;
25057;SDS011;13057;50.978;11.034;2023-04-20T09:08:47;8.43;;;5.45;;
25057;SDS011;13057;50.978;11.034;2023-04-20T09:11:23;8.30;;;5.40;;
25057;SDS011;13057;50.978;11.034;2023-04-20T09:13:58;8.52;;;5.93;;
25057;SDS011;13057;50.978;11.034;2023-04-20T09:16:25;6.93;;;5.00;;
25057;SDS011;13057;50.978;11.034;2023-04-20T09:18:52;8.45;;;5.47;;
25057;SDS011;13057;50.978;11.034;2023-04-20T09:21:19;10.60;;;6.50;;
25057;SDS011;13057;50.978;11.034;2023-04-20T09:26:31;9.85;;;6.22;;
25057;SDS011;13057;50.978;11.034;2023-04-20T09:28:59;6.47;;;5.03;;
25057;SDS011;13057;50.978;11.034;2023-04-20T09:31:25;7.07;;;4.82;;
25057;SDS011;13057;50.978;11.034;2023-04-20T09:33:56;9.50;;;4.90;;
25057;SDS011;13057;50.978;11.034;2023-04-20T09:36:33;6.97;;;5.07;;
25057;SDS011;13057;50.978;11.034;2023-04-20T09:39:02;7.30;;;4.78;;
25057;SDS011;13057;50.978;11.034;2023-04-20T09:41:31;5.88;;;4.45;;
25057;SDS011;13057;50.978;11.034;2023-04-20T09:43:58;5.25;;;3.70;;
25057;SDS011;13057;50.978;11.034;2023-04-20T09:46:27;5.13;;;3.75;;
25057;SDS011;13057;50.978;11.034;2023-04-20T09:48:56;5.57;;;3.75;;
25057;SDS011;13057;50.978;11.034;2023-04-20T09:51:26;5.95;;;4.32;;
25057;SDS011;13057;50.978;11.034;2023-04-20T09:53:55;6.10;;;3.53;;
25057;SDS011;13057;50.978;11.034;2023-04-20T09:56:22;5.65;;;4.40;;
25057;SDS011;13057;50.978;11.034;2023-04-20T09:58:48;5.68;;;4.35;;
25057;SDS011;13057;50.978;11.034;2023-04-20T10:01:16;5.45;;;4.20;;
25057;SDS011;13057;50.978;11.034;2023-04-20T10:03:42;8.38;;;4.75;;
25057;SDS011;13057;50.978;11.034;2023-04-20T10:06:16;4.88;;;3.75;;
25057;SDS011;13057;50.978;11.034;2023-04-20T10:08:47;4.47;;;3.65;;
25057;SDS011;13057;50.978;11.034;2023-04-20T10:11:25;6.05;;;3.70;;
25057;SDS011;13057;50.978;11.034;2023-04-20T10:13:52;7.00;;;4.38;;
25057;SDS011;13057;50.978;11.034;2023-04-20T10:16:18;4.55;;;3.83;;
25057;SDS011;13057;50.978;11.034;2023-04-20T10:21:25;4.97;;;3.95;;
25057;SDS011;13057;50.978;11.034;2023-04-20T10:23:52;5.35;;;3.92;;
25057;SDS011;13057;50.978;11.034;2023-04-20T10:26:18;4.32;;;3.78;;
25057;SDS011;13057;50.978;11.034;2023-04-20T10:28:45;5.07;;;4.18;;
25057;SDS011;13057;50.978;11.034;2023-04-20T10:31:11;4.95;;;3.70;;
25057;SDS011;13057;50.978;11.034;2023-04-20T10:33:47;6.05;;;4.00;;
25057;SDS011;13057;50.978;11.034;2023-04-20T10:36:21;5.90;;;3.97;;
25057;SDS011;13057;50.978;11.034;2023-04-20T10:38:49;6.53;;;4.00;;
25057;SDS011;13057;50.978;11.034;2023-04-20T10:41:16;4.70;;;3.75;;
25057;SDS011;13057;50.978;11.034;2023-04-20T10:43:42;4.65;;;3.75;;
25057;SDS011;13057;50.978;11.034;2023-04-20T10:46:12;5.13;;;3.53;;
25057;SDS011;13057;50.978;11.034;2023-04-20T10:48:49;7.47;;;4.10;;
25057;SDS011;13057;50.978;11.034;2023-04-20T10:51:17;6.03;;;4.35;;
25057;SDS011;13057;50.978;11.034;2023-04-20T10:53:43;6.47;;;4.70;;
25057;SDS011;13057;50.978;11.034;2023-04-20T10:56:09;10.18;;;4.57;;
25057;SDS011;13057;50.978;11.034;2023-04-20T10:58:35;6.60;;;4.35;;
25057;SDS011;13057;50.978;11.034;2023-04-20T11:01:03;4.70;;;4.20;;
25057;SDS011;13057;50.978;11.034;2023-04-20T11:03:30;5.57;;;4.78;;
25057;SDS011;13057;50.978;11.034;2023-04-20T11:05:57;9.35;;;6.40;;
25057;SDS011;13057;50.978;11.034;2023-04-20T11:08:36;5.20;;;4.65;;
25057;SDS011;13057;50.978;11.034;2023-04-20T11:11:03;7.13;;;4.95;;
25057;SDS011;13057;50.978;11.034;2023-04-20T11:13:29;6.55;;;3.78;;
25057;SDS011;13057;50.978;11.034;2023-04-20T11:15:57;5.43;;;4.53;;
25057;SDS011;13057;50.978;11.034;2023-04-20T11:18:23;7.03;;;4.90;;
25057;SDS011;13057;50.978;11.034;2023-04-20T11:20:50;5.75;;;4.53;;
25057;SDS011;13057;50.978;11.034;2023-04-20T11:23:19;5.80;;;4.45;;
25057;SDS011;13057;50.978;11.034;2023-04-20T11:25:52;7.22;;;5.40;;
25057;SDS011;13057;50.978;11.034;2023-04-20T11:28:20;7.82;;;5.57;;
25057;SDS011;13057;50.978;11.034;2023-04-20T11:30:46;11.77;;;5.97;;
25057;SDS011;13057;50.978;11.034;2023-04-20T11:33:25;6.75;;;5.53;;
25057;SDS011;13057;50.978;11.034;2023-04-20T11:35:53;8.93;;;6.30;;
25057;SDS011;13057;50.978;11.034;2023-04-20T11:38:27;8.15;;;6.70;;
25057;SDS011;13057;50.978;11.034;2023-04-20T11:40:56;7.07;;;6.20;;
25057;SDS011;13057;50.978;11.034;2023-04-20T11:43:28;8.80;;;6.95;;
25057;SDS011;13057;50.978;11.034;2023-04-20T11:45:56;9.10;;;6.90;;
25057;SDS011;13057;50.978;11.034;2023-04-20T11:48:23;11.48;;;8.35;;
25057;SDS011;13057;50.978;11.034;2023-04-20T11:50:49;9.10;;;7.68;;
25057;SDS011;13057;50.978;11.034;2023-04-20T11:53:15;9.27;;;7.18;;
25057;SDS011;13057;50.978;11.034;2023-04-20T11:55:44;9.07;;;7.50;;
25057;SDS011;13057;50.978;11.034;2023-04-20T11:58:11;9.55;;;7.85;;
25057;SDS011;13057;50.978;11.034;2023-04-20T12:00:37;13.10;;;8.05;;
25057;SDS011;13057;50.978;11.034;2023-04-20T12:03:04;10.35;;;8.57;;
25057;SDS011;13057;50.978;11.034;2023-04-20T12:05:32;11.40;;;8.57;;
25057;SDS011;13057;50.978;11.034;2023-04-20T12:08:11;9.43;;;8.30;;
25057;SDS011;13057;50.978;11.034;2023-04-20T12:10:38;12.48;;;9.27;;
25057;SDS011;13057;50.978;11.034;2023-04-20T12:13:08;12.00;;;9.93;;
25057;SDS011;13057;50.978;11.034;2023-04-20T12:15:35;12.18;;;8.98;;
25057;SDS011;13057;50.978;11.034;2023-04-20T12:18:02;12.60;;;9.07;;
25057;SDS011;13057;50.978;11.034;2023-04-20T12:20:28;12.05;;;9.38;;
25057;SDS011;13057;50.978;11.034;2023-04-20T12:22:56;13.10;;;8.85;;
25057;SDS011;13057;50.978;11.034;2023-04-20T12:25:27;9.98;;;8.15;;
25057;SDS011;13057;50.978;11.034;2023-04-20T12:27:54;10.40;;;8.50;;
25057;SDS011;13057;50.978;11.034;2023-04-20T12:30:21;11.05;;;8.38;;
25057;SDS011;13057;50.978;11.034;2023-04-20T12:33:01;10.38;;;7.85;;
25057;SDS011;13057;50.978;11.034;2023-04-20T12:35:42;10.73;;;8.30;;
25057;SDS011;13057;50.978;11.034;2023-04-20T12:38:09;14.98;;;8.00;;
25057;SDS011;13057;50.978;11.034;2023-04-20T12:40:35;13.93;;;7.97;;
25057;SDS011;13057;50.978;11.034;2023-04-20T12:43:01;11.40;;;8.95;;
25057;SDS011;13057;50.978;11.034;2023-04-20T12:45:27;9.90;;;8.45;;
25057;SDS011;13057;50.978;11.034;2023-04-20T12:47:53;11.90;;;8.95;;
25057;SDS011;13057;50.978;11.034;2023-04-20T12:50:19;11.60;;;8.30;;
25057;SDS011;13057;50.978;11.034;2023-04-20T12:52:45;12.55;;;8.15;;
25057;SDS011;13057;50.978;11.034;2023-04-20T12:55:16;11.00;;;8.25;;
25057;SDS011;13057;50.978;11.034;2023-04-20T12:57:42;12.70;;;8.13;;
25057;SDS011;13057;50.978;11.034;2023-04-20T13:00:09;14.30;;;10.68;;
25057;SDS011;13057;50.978;11.034;2023-04-20T13:02:36;12.43;;;8.23;;
25057;SDS011;13057;50.978;11.034;2023-04-20T13:05:03;10.70;;;7.93;;
25057;SDS011;13057;50.978;11.034;2023-04-20T13:07:29;12.90;;;8.55;;
25057;SDS011;13057;50.978;11.034;2023-04-20T13:09:56;9.93;;;7.32;;
25057;SDS011;13057;50.978;11.034;2023-04-20T13:12:22;15.38;;;10.73;;
25057;SDS011;13057;50.978;11.034;2023-04-20T13:14:48;10.13;;;7.85;;
25057;SDS011;13057;50.978;11.034;2023-04-20T13:17:15;10.40;;;8.30;;
25057;SDS011;13057;50.978;11.034;2023-04-20T13:19:42;11.05;;;8.52;;
25057;SDS011;13057;50.978;11.034;2023-04-20T13:22:10;14.32;;;9.23;;
25057;SDS011;13057;50.978;11.034;2023-04-20T13:24:36;10.85;;;8.18;;
25057;SDS011;13057;50.978;11.034;2023-04-20T13:27:02;13.95;;;8.32;;
25057;SDS011;13057;50.978;11.034;2023-04-20T13:29:28;9.25;;;7.50;;
25057;SDS011;13057;50.978;11.034;2023-04-20T13:31:54;8.80;;;7.15;;
25057;SDS011;13057;50.978;11.034;2023-04-20T13:34:20;10.10;;;6.65;;
25057;SDS011;13057;50.978;11.034;2023-04-20T13:36:47;12.13;;;7.28;;
25057;SDS011;13057;50.978;11.034;2023-04-20T13:39:13;10.65;;;7.32;;
25057;SDS011;13057;50.978;11.034;2023-04-20T13:41:39;10.98;;;7.30;;
25057;SDS011;13057;50.978;11.034;2023-04-20T13:44:05;11.95;;;7.63;;
25057;SDS011;13057;50.978;11.034;2023-04-20T13:46:33;8.80;;;6.45;;
25057;SDS011;13057;50.978;11.034;2023-04-20T13:48:59;10.73;;;7.18;;
25057;SDS011;13057;50.978;11.034;2023-04-20T13:51:26;9.18;;;7.07;;
25057;SDS011;13057;50.978;11.034;2023-04-20T13:53:52;8.32;;;6.28;;
25057;SDS011;13057;50.978;11.034;2023-04-20T13:56:17;11.30;;;6.50;;
25057;SDS011;13057;50.978;11.034;2023-04-20T13:58:43;8.95;;;6.95;;
25057;SDS011;13057;50.978;11.034;2023-04-20T14:01:10;8.73;;;6.43;;
25057;SDS011;13057;50.978;11.034;2023-04-20T14:03:37;10.57;;;6.30;;
25057;SDS011;13057;50.978;11.034;2023-04-20T14:06:06;10.77;;;6.50;;
25057;SDS011;13057;50.978;11.034;2023-04-20T14:08:31;10.65;;;6.43;;
25057;SDS011;13057;50.978;11.034;2023-04-20T14:10:57;8.60;;;6.85;;
25057;SDS011;13057;50.978;11.034;2023-04-20T14:13:24;8.73;;;5.75;;
25057;SDS011;13057;50.978;11.034;2023-04-20T14:15:50;8.50;;;6.38;;
25057;SDS011;13057;50.978;11.034;2023-04-20T14:18:17;10.75;;;6.88;;
25057;SDS011;13057;50.978;11.034;2023-04-20T14:20:43;8.48;;;6.88;;
25057;SDS011;13057;50.978;11.034;2023-04-20T14:23:09;8.77;;;6.60;;
25057;SDS011;13057;50.978;11.034;2023-04-20T14:25:35;9.02;;;7.07;;
25057;SDS011;13057;50.978;11.034;2023-04-20T14:28:01;9.80;;;6.88;;
25057;SDS011;13057;50.978;11.034;2023-04-20T14:30:28;9.20;;;6.80;;
25057;SDS011;13057;50.978;11.034;2023-04-20T14:32:54;11.73;;;7.80;;